Terminal Aerodrome Forecast
Issued by NWS Albany, NY

Home | Current Version | Previous Version | Text Only | Print | Product List | Glossary On
Versions: 1 2 3 4 5 6 7 8 9 10 11 12 13 14 15 16 17 18 19 20 21 22 23 24 25 26 27
000
FTUS41 KALY 230730 AAA
TAFGFL
TAF AMD
KGFL 230730Z 2308/2406 VRB03KT P6SM SCT020 BKN120
      TEMPO 2308/2312 2SM BR BKN003
     FM231500 06007KT P6SM FEW045 BKN120 PROB30 2403/2406 5SM -SHRA
      BR BKN035 OVC060=

USA.gov is the U.S. government's official web portal to all federal, state and local government web resources and services.